Terminal Aerodrome Forecast
Issued by NWS Cleveland, OH

Home | Current Version | Previous Version | Graphics & Text | Print | Product List | Glossary On
Versions: 1 2 3 4 5 6 7 8 9 10 11 12 13 14 15 16 17
000
FTUS41 KCLE 071100
TAFYNG
TAF
KYNG 071127Z 0712/0812 21012G18KT P6SM VCSH SCT045 BKN200
     FM071800 23015G25KT P6SM VCTS BKN045CB
     FM080100 23009KT P6SM BKN045
     FM080500 22007KT 6SM BR SCT040 BKN150
     FM080800 22006KT 4SM BR SCT040 BKN150=

USA.gov is the U.S. government's official web portal to all federal, state and local government web resources and services.